sensor_id;sensor_type;location;lat;lon;timestamp;P1;durP1;ratioP1;P2;durP2;ratioP2
50161;SDS011;36061;48.116;11.612;2023-08-17T00:01:07;17.07;;;7.10;;
50161;SDS011;36061;48.116;11.612;2023-08-17T00:03:34;17.37;;;6.13;;
50161;SDS011;36061;48.116;11.612;2023-08-17T00:06:01;10.63;;;5.37;;
50161;SDS011;36061;48.116;11.612;2023-08-17T00:08:29;11.03;;;5.27;;
50161;SDS011;36061;48.116;11.612;2023-08-17T00:10:56;12.90;;;5.47;;
50161;SDS011;36061;48.116;11.612;2023-08-17T00:13:23;8.07;;;6.10;;
50161;SDS011;36061;48.116;11.612;2023-08-17T00:15:52;11.67;;;5.70;;
50161;SDS011;36061;48.116;11.612;2023-08-17T00:18:19;10.40;;;5.27;;
50161;SDS011;36061;48.116;11.612;2023-08-17T00:20:46;13.20;;;5.70;;
50161;SDS011;36061;48.116;11.612;2023-08-17T00:23:14;11.23;;;6.40;;
50161;SDS011;36061;48.116;11.612;2023-08-17T00:25:41;8.23;;;5.97;;
50161;SDS011;36061;48.116;11.612;2023-08-17T00:28:08;18.93;;;6.00;;
50161;SDS011;36061;48.116;11.612;2023-08-17T00:30:35;12.33;;;5.40;;
50161;SDS011;36061;48.116;11.612;2023-08-17T00:33:04;17.60;;;5.33;;
50161;SDS011;36061;48.116;11.612;2023-08-17T00:35:31;11.10;;;5.30;;
50161;SDS011;36061;48.116;11.612;2023-08-17T00:37:59;8.63;;;5.50;;
50161;SDS011;36061;48.116;11.612;2023-08-17T00:40:26;9.73;;;4.87;;
50161;SDS011;36061;48.116;11.612;2023-08-17T00:42:53;6.47;;;4.70;;
50161;SDS011;36061;48.116;11.612;2023-08-17T00:45:21;7.73;;;5.30;;
50161;SDS011;36061;48.116;11.612;2023-08-17T00:47:50;10.27;;;4.97;;
50161;SDS011;36061;48.116;11.612;2023-08-17T00:50:19;8.73;;;5.27;;
50161;SDS011;36061;48.116;11.612;2023-08-17T00:52:46;12.00;;;6.17;;
50161;SDS011;36061;48.116;11.612;2023-08-17T00:55:14;9.27;;;5.80;;
50161;SDS011;36061;48.116;11.612;2023-08-17T00:57:41;8.27;;;5.60;;
50161;SDS011;36061;48.116;11.612;2023-08-17T01:00:11;6.37;;;5.20;;
50161;SDS011;36061;48.116;11.612;2023-08-17T01:02:39;9.10;;;5.47;;
50161;SDS011;36061;48.116;11.612;2023-08-17T01:05:07;6.73;;;4.77;;
50161;SDS011;36061;48.116;11.612;2023-08-17T01:07:35;6.00;;;5.07;;
50161;SDS011;36061;48.116;11.612;2023-08-17T01:10:04;5.27;;;4.73;;
50161;SDS011;36061;48.116;11.612;2023-08-17T01:12:36;8.67;;;4.70;;
50161;SDS011;36061;48.116;11.612;2023-08-17T01:15:09;6.87;;;4.80;;
50161;SDS011;36061;48.116;11.612;2023-08-17T01:17:42;7.10;;;5.00;;
50161;SDS011;36061;48.116;11.612;2023-08-17T01:20:13;5.97;;;4.70;;
50161;SDS011;36061;48.116;11.612;2023-08-17T01:22:45;7.23;;;5.00;;
50161;SDS011;36061;48.116;11.612;2023-08-17T01:25:16;6.17;;;4.60;;
50161;SDS011;36061;48.116;11.612;2023-08-17T01:27:44;6.00;;;4.40;;
50161;SDS011;36061;48.116;11.612;2023-08-17T01:30:13;5.37;;;4.53;;
50161;SDS011;36061;48.116;11.612;2023-08-17T01:32:44;5.40;;;4.70;;
50161;SDS011;36061;48.116;11.612;2023-08-17T01:35:21;5.57;;;4.50;;
50161;SDS011;36061;48.116;11.612;2023-08-17T01:37:55;6.47;;;4.50;;
50161;SDS011;36061;48.116;11.612;2023-08-17T01:40:27;6.50;;;4.97;;
50161;SDS011;36061;48.116;11.612;2023-08-17T01:42:57;5.93;;;4.87;;
50161;SDS011;36061;48.116;11.612;2023-08-17T01:45:24;5.13;;;4.63;;
50161;SDS011;36061;48.116;11.612;2023-08-17T01:47:52;6.07;;;4.63;;
50161;SDS011;36061;48.116;11.612;2023-08-17T01:50:19;6.47;;;4.50;;
50161;SDS011;36061;48.116;11.612;2023-08-17T01:52:49;5.63;;;4.70;;
50161;SDS011;36061;48.116;11.612;2023-08-17T01:55:16;6.60;;;4.57;;
50161;SDS011;36061;48.116;11.612;2023-08-17T01:57:45;9.67;;;5.17;;
50161;SDS011;36061;48.116;11.612;2023-08-17T02:00:13;6.10;;;4.40;;
50161;SDS011;36061;48.116;11.612;2023-08-17T02:02:41;6.50;;;4.77;;
50161;SDS011;36061;48.116;11.612;2023-08-17T02:05:08;5.60;;;4.47;;
50161;SDS011;36061;48.116;11.612;2023-08-17T02:07:36;6.67;;;4.80;;
50161;SDS011;36061;48.116;11.612;2023-08-17T02:10:03;5.07;;;4.03;;
50161;SDS011;36061;48.116;11.612;2023-08-17T02:12:31;8.50;;;4.83;;
50161;SDS011;36061;48.116;11.612;2023-08-17T02:15:00;7.40;;;4.90;;
50161;SDS011;36061;48.116;11.612;2023-08-17T02:17:27;4.87;;;4.10;;
50161;SDS011;36061;48.116;11.612;2023-08-17T02:19:54;8.73;;;4.97;;
50161;SDS011;36061;48.116;11.612;2023-08-17T02:22:22;6.37;;;4.70;;
50161;SDS011;36061;48.116;11.612;2023-08-17T02:24:49;8.93;;;5.07;;
50161;SDS011;36061;48.116;11.612;2023-08-17T02:27:16;7.73;;;4.57;;
50161;SDS011;36061;48.116;11.612;2023-08-17T02:29:43;5.93;;;4.73;;
50161;SDS011;36061;48.116;11.612;2023-08-17T02:32:12;6.37;;;4.80;;
50161;SDS011;36061;48.116;11.612;2023-08-17T02:34:39;5.30;;;4.60;;
50161;SDS011;36061;48.116;11.612;2023-08-17T02:37:06;5.47;;;4.43;;
50161;SDS011;36061;48.116;11.612;2023-08-17T02:39:33;9.60;;;4.90;;
50161;SDS011;36061;48.116;11.612;2023-08-17T02:42:00;8.00;;;4.93;;
50161;SDS011;36061;48.116;11.612;2023-08-17T02:44:30;6.40;;;4.50;;
50161;SDS011;36061;48.116;11.612;2023-08-17T02:46:57;6.40;;;5.00;;
50161;SDS011;36061;48.116;11.612;2023-08-17T02:49:26;6.43;;;4.63;;
50161;SDS011;36061;48.116;11.612;2023-08-17T02:51:53;6.20;;;4.70;;
50161;SDS011;36061;48.116;11.612;2023-08-17T02:54:20;5.30;;;4.40;;
50161;SDS011;36061;48.116;11.612;2023-08-17T02:56:48;7.23;;;4.40;;
50161;SDS011;36061;48.116;11.612;2023-08-17T02:59:16;5.80;;;4.83;;
50161;SDS011;36061;48.116;11.612;2023-08-17T03:01:44;5.17;;;4.67;;
50161;SDS011;36061;48.116;11.612;2023-08-17T03:04:12;4.97;;;4.47;;
50161;SDS011;36061;48.116;11.612;2023-08-17T03:06:41;5.83;;;4.17;;
50161;SDS011;36061;48.116;11.612;2023-08-17T03:09:08;5.00;;;4.50;;
50161;SDS011;36061;48.116;11.612;2023-08-17T03:11:36;5.37;;;4.67;;
50161;SDS011;36061;48.116;11.612;2023-08-17T03:14:03;5.07;;;4.07;;
50161;SDS011;36061;48.116;11.612;2023-08-17T03:16:30;7.40;;;4.70;;
50161;SDS011;36061;48.116;11.612;2023-08-17T03:18:59;5.93;;;4.27;;
50161;SDS011;36061;48.116;11.612;2023-08-17T03:21:26;5.03;;;4.37;;
50161;SDS011;36061;48.116;11.612;2023-08-17T03:23:55;5.40;;;4.30;;
50161;SDS011;36061;48.116;11.612;2023-08-17T03:26:22;7.07;;;4.13;;
50161;SDS011;36061;48.116;11.612;2023-08-17T03:28:49;4.90;;;4.40;;
50161;SDS011;36061;48.116;11.612;2023-08-17T03:31:19;8.27;;;4.80;;
50161;SDS011;36061;48.116;11.612;2023-08-17T03:33:47;4.33;;;3.87;;
50161;SDS011;36061;48.116;11.612;2023-08-17T03:36:14;4.97;;;4.47;;
50161;SDS011;36061;48.116;11.612;2023-08-17T03:38:42;7.23;;;5.47;;
50161;SDS011;36061;48.116;11.612;2023-08-17T03:41:11;6.70;;;4.30;;
50161;SDS011;36061;48.116;11.612;2023-08-17T03:43:38;5.70;;;4.67;;
50161;SDS011;36061;48.116;11.612;2023-08-17T03:46:05;4.80;;;4.30;;
50161;SDS011;36061;48.116;11.612;2023-08-17T03:48:34;5.70;;;4.77;;
50161;SDS011;36061;48.116;11.612;2023-08-17T03:51:01;7.63;;;4.37;;
50161;SDS011;36061;48.116;11.612;2023-08-17T03:53:29;7.40;;;4.60;;
50161;SDS011;36061;48.116;11.612;2023-08-17T03:55:57;5.00;;;4.50;;
50161;SDS011;36061;48.116;11.612;2023-08-17T03:58:26;5.03;;;3.87;;
50161;SDS011;36061;48.116;11.612;2023-08-17T04:00:58;5.37;;;4.23;;
50161;SDS011;36061;48.116;11.612;2023-08-17T04:03:29;6.03;;;4.40;;
50161;SDS011;36061;48.116;11.612;2023-08-17T04:05:56;5.67;;;4.57;;
50161;SDS011;36061;48.116;11.612;2023-08-17T04:08:23;6.70;;;4.57;;
50161;SDS011;36061;48.116;11.612;2023-08-17T04:10:51;4.63;;;4.20;;
50161;SDS011;36061;48.116;11.612;2023-08-17T04:13:18;7.50;;;4.67;;
50161;SDS011;36061;48.116;11.612;2023-08-17T04:15:46;12.13;;;4.97;;
50161;SDS011;36061;48.116;11.612;2023-08-17T04:18:13;5.57;;;4.63;;
50161;SDS011;36061;48.116;11.612;2023-08-17T04:20:41;5.97;;;4.57;;
50161;SDS011;36061;48.116;11.612;2023-08-17T04:23:08;5.67;;;4.57;;
50161;SDS011;36061;48.116;11.612;2023-08-17T04:25:35;4.77;;;4.37;;
50161;SDS011;36061;48.116;11.612;2023-08-17T04:28:03;6.33;;;4.33;;
50161;SDS011;36061;48.116;11.612;2023-08-17T04:30:31;6.07;;;4.57;;
50161;SDS011;36061;48.116;11.612;2023-08-17T04:33:02;6.40;;;4.60;;
50161;SDS011;36061;48.116;11.612;2023-08-17T04:35:30;5.77;;;4.50;;
50161;SDS011;36061;48.116;11.612;2023-08-17T04:37:57;5.40;;;4.90;;
50161;SDS011;36061;48.116;11.612;2023-08-17T04:40:25;6.37;;;4.70;;
50161;SDS011;36061;48.116;11.612;2023-08-17T04:42:53;6.03;;;4.80;;
50161;SDS011;36061;48.116;11.612;2023-08-17T04:45:21;7.97;;;4.57;;
50161;SDS011;36061;48.116;11.612;2023-08-17T04:47:49;8.43;;;5.20;;
50161;SDS011;36061;48.116;11.612;2023-08-17T04:50:18;6.70;;;5.20;;
50161;SDS011;36061;48.116;11.612;2023-08-17T04:52:47;6.13;;;5.23;;
50161;SDS011;36061;48.116;11.612;2023-08-17T04:55:14;9.63;;;6.07;;
50161;SDS011;36061;48.116;11.612;2023-08-17T04:57:42;10.83;;;5.80;;
50161;SDS011;36061;48.116;11.612;2023-08-17T05:00:11;9.13;;;4.47;;
50161;SDS011;36061;48.116;11.612;2023-08-17T05:02:41;5.77;;;4.67;;
50161;SDS011;36061;48.116;11.612;2023-08-17T05:05:09;7.63;;;5.23;;
50161;SDS011;36061;48.116;11.612;2023-08-17T05:07:38;11.57;;;5.60;;
50161;SDS011;36061;48.116;11.612;2023-08-17T05:10:06;6.40;;;4.77;;
50161;SDS011;36061;48.116;11.612;2023-08-17T05:12:37;8.73;;;5.50;;
50161;SDS011;36061;48.116;11.612;2023-08-17T05:15:05;6.23;;;5.07;;
50161;SDS011;36061;48.116;11.612;2023-08-17T05:17:32;8.73;;;5.20;;
50161;SDS011;36061;48.116;11.612;2023-08-17T05:20:01;7.23;;;5.17;;
50161;SDS011;36061;48.116;11.612;2023-08-17T05:22:29;8.53;;;5.67;;
50161;SDS011;36061;48.116;11.612;2023-08-17T05:24:58;8.07;;;5.00;;
50161;SDS011;36061;48.116;11.612;2023-08-17T05:27:26;6.93;;;5.40;;
50161;SDS011;36061;48.116;11.612;2023-08-17T05:29:54;8.27;;;5.00;;
50161;SDS011;36061;48.116;11.612;2023-08-17T05:32:21;7.20;;;5.33;;
50161;SDS011;36061;48.116;11.612;2023-08-17T05:34:49;7.67;;;5.00;;
50161;SDS011;36061;48.116;11.612;2023-08-17T05:37:17;8.00;;;4.83;;
50161;SDS011;36061;48.116;11.612;2023-08-17T05:39:44;5.80;;;4.63;;
50161;SDS011;36061;48.116;11.612;2023-08-17T05:42:12;8.87;;;5.13;;
50161;SDS011;36061;48.116;11.612;2023-08-17T05:44:40;5.87;;;5.23;;
50161;SDS011;36061;48.116;11.612;2023-08-17T05:47:08;9.13;;;5.30;;
50161;SDS011;36061;48.116;11.612;2023-08-17T05:49:35;6.23;;;5.27;;
50161;SDS011;36061;48.116;11.612;2023-08-17T05:52:03;5.93;;;5.13;;
50161;SDS011;36061;48.116;11.612;2023-08-17T05:54:30;6.13;;;5.07;;
50161;SDS011;36061;48.116;11.612;2023-08-17T05:56:58;6.63;;;4.97;;
50161;SDS011;36061;48.116;11.612;2023-08-17T05:59:26;7.50;;;5.20;;
50161;SDS011;36061;48.116;11.612;2023-08-17T06:01:54;4.90;;;4.40;;
50161;SDS011;36061;48.116;11.612;2023-08-17T06:04:21;7.80;;;5.60;;
50161;SDS011;36061;48.116;11.612;2023-08-17T06:06:48;5.93;;;4.77;;
50161;SDS011;36061;48.116;11.612;2023-08-17T06:09:16;6.93;;;5.33;;
50161;SDS011;36061;48.116;11.612;2023-08-17T06:11:43;5.87;;;4.53;;
50161;SDS011;36061;48.116;11.612;2023-08-17T06:14:11;5.67;;;4.77;;
50161;SDS011;36061;48.116;11.612;2023-08-17T06:16:39;7.77;;;4.57;;
50161;SDS011;36061;48.116;11.612;2023-08-17T06:19:06;8.20;;;4.67;;
50161;SDS011;36061;48.116;11.612;2023-08-17T06:21:34;6.27;;;4.60;;
50161;SDS011;36061;48.116;11.612;2023-08-17T06:24:01;5.20;;;4.33;;
50161;SDS011;36061;48.116;11.612;2023-08-17T06:26:29;6.70;;;4.37;;
50161;SDS011;36061;48.116;11.612;2023-08-17T06:28:57;5.80;;;5.10;;
50161;SDS011;36061;48.116;11.612;2023-08-17T06:31:24;6.07;;;4.73;;
50161;SDS011;36061;48.116;11.612;2023-08-17T06:33:54;7.07;;;4.27;;
50161;SDS011;36061;48.116;11.612;2023-08-17T06:36:21;4.67;;;4.13;;
50161;SDS011;36061;48.116;11.612;2023-08-17T06:38:49;12.40;;;4.43;;
50161;SDS011;36061;48.116;11.612;2023-08-17T06:41:16;5.13;;;4.37;;
50161;SDS011;36061;48.116;11.612;2023-08-17T06:43:43;4.90;;;4.40;;
50161;SDS011;36061;48.116;11.612;2023-08-17T06:46:10;7.33;;;4.43;;
50161;SDS011;36061;48.116;11.612;2023-08-17T06:48:38;7.37;;;5.23;;
50161;SDS011;36061;48.116;11.612;2023-08-17T06:51:06;5.47;;;4.73;;
50161;SDS011;36061;48.116;11.612;2023-08-17T06:53:33;7.27;;;4.60;;
50161;SDS011;36061;48.116;11.612;2023-08-17T06:56:01;7.87;;;4.60;;
50161;SDS011;36061;48.116;11.612;2023-08-17T06:58:28;4.70;;;4.20;;
50161;SDS011;36061;48.116;11.612;2023-08-17T07:00:55;5.03;;;4.40;;
50161;SDS011;36061;48.116;11.612;2023-08-17T07:03:22;5.97;;;4.43;;
50161;SDS011;36061;48.116;11.612;2023-08-17T07:05:49;5.67;;;4.43;;
50161;SDS011;36061;48.116;11.612;2023-08-17T07:08:18;4.90;;;4.47;;
50161;SDS011;36061;48.116;11.612;2023-08-17T07:10:45;4.60;;;4.20;;
50161;SDS011;36061;48.116;11.612;2023-08-17T07:13:12;5.07;;;4.57;;
50161;SDS011;36061;48.116;11.612;2023-08-17T07:15:40;6.40;;;4.90;;
50161;SDS011;36061;48.116;11.612;2023-08-17T07:18:07;7.80;;;4.50;;
50161;SDS011;36061;48.116;11.612;2023-08-17T07:20:34;5.63;;;4.77;;
50161;SDS011;36061;48.116;11.612;2023-08-17T07:23:01;4.87;;;4.47;;
50161;SDS011;36061;48.116;11.612;2023-08-17T07:25:30;4.80;;;4.30;;
50161;SDS011;36061;48.116;11.612;2023-08-17T07:27:58;6.17;;;4.87;;
50161;SDS011;36061;48.116;11.612;2023-08-17T07:30:25;5.47;;;4.80;;
50161;SDS011;36061;48.116;11.612;2023-08-17T07:32:53;7.03;;;4.57;;
50161;SDS011;36061;48.116;11.612;2023-08-17T07:35:20;5.33;;;4.30;;
50161;SDS011;36061;48.116;11.612;2023-08-17T07:37:47;5.00;;;4.50;;
50161;SDS011;36061;48.116;11.612;2023-08-17T07:40:14;5.83;;;4.20;;
50161;SDS011;36061;48.116;11.612;2023-08-17T07:42:43;6.53;;;4.57;;
50161;SDS011;36061;48.116;11.612;2023-08-17T07:45:11;5.77;;;4.93;;
50161;SDS011;36061;48.116;11.612;2023-08-17T07:47:38;6.73;;;4.60;;
50161;SDS011;36061;48.116;11.612;2023-08-17T07:50:06;5.33;;;4.63;;
50161;SDS011;36061;48.116;11.612;2023-08-17T07:52:34;5.47;;;4.13;;
50161;SDS011;36061;48.116;11.612;2023-08-17T07:55:01;7.63;;;4.67;;
50161;SDS011;36061;48.116;11.612;2023-08-17T07:57:29;9.47;;;4.93;;
50161;SDS011;36061;48.116;11.612;2023-08-17T07:59:58;7.87;;;4.60;;
50161;SDS011;36061;48.116;11.612;2023-08-17T08:02:25;5.40;;;4.30;;
50161;SDS011;36061;48.116;11.612;2023-08-17T08:04:52;11.40;;;5.37;;
50161;SDS011;36061;48.116;11.612;2023-08-17T08:07:19;5.13;;;4.20;;
50161;SDS011;36061;48.116;11.612;2023-08-17T08:09:46;4.90;;;4.40;;
50161;SDS011;36061;48.116;11.612;2023-08-17T08:12:14;5.27;;;4.57;;
50161;SDS011;36061;48.116;11.612;2023-08-17T08:14:41;5.87;;;4.83;;
50161;SDS011;36061;48.116;11.612;2023-08-17T08:17:09;6.60;;;4.33;;
50161;SDS011;36061;48.116;11.612;2023-08-17T08:19:37;7.40;;;5.03;;
50161;SDS011;36061;48.116;11.612;2023-08-17T08:22:04;5.10;;;4.60;;
50161;SDS011;36061;48.116;11.612;2023-08-17T08:24:31;5.60;;;4.43;;
50161;SDS011;36061;48.116;11.612;2023-08-17T08:27:00;5.13;;;4.60;;
50161;SDS011;36061;48.116;11.612;2023-08-17T08:29:27;6.03;;;4.97;;
50161;SDS011;36061;48.116;11.612;2023-08-17T08:31:54;4.97;;;4.50;;
50161;SDS011;36061;48.116;11.612;2023-08-17T08:34:24;7.37;;;4.83;;
50161;SDS011;36061;48.116;11.612;2023-08-17T08:36:51;5.10;;;4.60;;
50161;SDS011;36061;48.116;11.612;2023-08-17T08:39:18;5.13;;;4.27;;
50161;SDS011;36061;48.116;11.612;2023-08-17T08:41:45;7.53;;;5.10;;
50161;SDS011;36061;48.116;11.612;2023-08-17T08:44:12;5.77;;;4.63;;
50161;SDS011;36061;48.116;11.612;2023-08-17T08:46:40;5.93;;;4.90;;
50161;SDS011;36061;48.116;11.612;2023-08-17T08:49:10;7.70;;;4.57;;
50161;SDS011;36061;48.116;11.612;2023-08-17T08:51:41;7.33;;;4.90;;
50161;SDS011;36061;48.116;11.612;2023-08-17T08:54:12;6.40;;;4.37;;
50161;SDS011;36061;48.116;11.612;2023-08-17T08:56:41;5.50;;;4.90;;
50161;SDS011;36061;48.116;11.612;2023-08-17T08:59:11;9.00;;;6.80;;
50161;SDS011;36061;48.116;11.612;2023-08-17T09:01:38;7.07;;;5.10;;
50161;SDS011;36061;48.116;11.612;2023-08-17T09:04:06;4.87;;;4.23;;
50161;SDS011;36061;48.116;11.612;2023-08-17T09:06:34;5.83;;;4.57;;
50161;SDS011;36061;48.116;11.612;2023-08-17T09:09:03;5.97;;;4.03;;
50161;SDS011;36061;48.116;11.612;2023-08-17T09:11:32;5.50;;;4.70;;
50161;SDS011;36061;48.116;11.612;2023-08-17T09:13:59;7.73;;;4.80;;
50161;SDS011;36061;48.116;11.612;2023-08-17T09:16:26;6.17;;;5.03;;
50161;SDS011;36061;48.116;11.612;2023-08-17T09:18:54;8.80;;;4.90;;
50161;SDS011;36061;48.116;11.612;2023-08-17T09:21:21;5.60;;;4.10;;
50161;SDS011;36061;48.116;11.612;2023-08-17T09:23:52;4.60;;;4.10;;
50161;SDS011;36061;48.116;11.612;2023-08-17T09:26:21;5.30;;;3.80;;
50161;SDS011;36061;48.116;11.612;2023-08-17T09:28:49;5.23;;;4.23;;
50161;SDS011;36061;48.116;11.612;2023-08-17T09:31:17;6.13;;;4.50;;
50161;SDS011;36061;48.116;11.612;2023-08-17T09:33:48;4.63;;;3.87;;
50161;SDS011;36061;48.116;11.612;2023-08-17T09:36:19;4.37;;;3.70;;
50161;SDS011;36061;48.116;11.612;2023-08-17T09:38:47;4.80;;;3.70;;
50161;SDS011;36061;48.116;11.612;2023-08-17T09:41:15;4.87;;;3.83;;
50161;SDS011;36061;48.116;11.612;2023-08-17T09:43:45;5.47;;;3.60;;
50161;SDS011;36061;48.116;11.612;2023-08-17T09:46:12;3.50;;;3.20;;
50161;SDS011;36061;48.116;11.612;2023-08-17T09:48:42;3.93;;;3.53;;
50161;SDS011;36061;48.116;11.612;2023-08-17T09:51:10;5.30;;;3.87;;
50161;SDS011;36061;48.116;11.612;2023-08-17T09:53:41;4.83;;;3.87;;
50161;SDS011;36061;48.116;11.612;2023-08-17T09:56:09;7.83;;;4.73;;
50161;SDS011;36061;48.116;11.612;2023-08-17T09:58:38;5.23;;;3.70;;
50161;SDS011;36061;48.116;11.612;2023-08-17T10:01:06;3.87;;;3.53;;
50161;SDS011;36061;48.116;11.612;2023-08-17T10:03:37;5.97;;;3.37;;
50161;SDS011;36061;48.116;11.612;2023-08-17T10:06:09;3.03;;;2.83;;
50161;SDS011;36061;48.116;11.612;2023-08-17T10:08:39;4.93;;;3.63;;
50161;SDS011;36061;48.116;11.612;2023-08-17T10:11:09;6.47;;;3.80;;
50161;SDS011;36061;48.116;11.612;2023-08-17T10:13:39;4.30;;;3.47;;
50161;SDS011;36061;48.116;11.612;2023-08-17T10:16:14;7.83;;;4.03;;
50161;SDS011;36061;48.116;11.612;2023-08-17T10:18:50;3.97;;;3.60;;
50161;SDS011;36061;48.116;11.612;2023-08-17T10:21:23;3.80;;;3.40;;
50161;SDS011;36061;48.116;11.612;2023-08-17T10:23:54;3.57;;;3.23;;
50161;SDS011;36061;48.116;11.612;2023-08-17T10:26:22;4.30;;;3.90;;
50161;SDS011;36061;48.116;11.612;2023-08-17T10:28:50;5.67;;;3.43;;
50161;SDS011;36061;48.116;11.612;2023-08-17T10:31:21;4.37;;;3.60;;
50161;SDS011;36061;48.116;11.612;2023-08-17T10:33:48;3.80;;;3.40;;
50161;SDS011;36061;48.116;11.612;2023-08-17T10:36:16;3.70;;;3.40;;
50161;SDS011;36061;48.116;11.612;2023-08-17T10:38:44;6.10;;;4.33;;
50161;SDS011;36061;48.116;11.612;2023-08-17T10:41:12;4.55;;;3.92;;
50161;SDS011;36061;48.116;11.612;2023-08-17T10:43:53;4.07;;;3.67;;
50161;SDS011;36061;48.116;11.612;2023-08-17T10:46:22;5.10;;;3.47;;
50161;SDS011;36061;48.116;11.612;2023-08-17T10:49:00;4.75;;;4.13;;
50161;SDS011;36061;48.116;11.612;2023-08-17T10:51:32;4.53;;;4.13;;
50161;SDS011;36061;48.116;11.612;2023-08-17T10:54:01;4.20;;;3.90;;
50161;SDS011;36061;48.116;11.612;2023-08-17T10:56:29;3.83;;;3.50;;
50161;SDS011;36061;48.116;11.612;2023-08-17T10:59:01;4.30;;;3.90;;
50161;SDS011;36061;48.116;11.612;2023-08-17T11:01:33;4.47;;;3.88;;
50161;SDS011;36061;48.116;11.612;2023-08-17T11:04:11;4.43;;;4.03;;
50161;SDS011;36061;48.116;11.612;2023-08-17T11:06:42;4.40;;;3.97;;
50161;SDS011;36061;48.116;11.612;2023-08-17T11:09:10;4.17;;;3.77;;
50161;SDS011;36061;48.116;11.612;2023-08-17T11:11:37;6.10;;;4.30;;
50161;SDS011;36061;48.116;11.612;2023-08-17T11:14:04;5.60;;;3.90;;
50161;SDS011;36061;48.116;11.612;2023-08-17T11:16:33;5.00;;;4.28;;
50161;SDS011;36061;48.116;11.612;2023-08-17T11:19:00;3.60;;;3.27;;
50161;SDS011;36061;48.116;11.612;2023-08-17T11:21:28;5.00;;;3.67;;
50161;SDS011;36061;48.116;11.612;2023-08-17T11:23:55;3.87;;;3.53;;
50161;SDS011;36061;48.116;11.612;2023-08-17T11:26:24;7.67;;;4.20;;
50161;SDS011;36061;48.116;11.612;2023-08-17T11:28:53;5.25;;;3.95;;
50161;SDS011;36061;48.116;11.612;2023-08-17T11:31:20;5.37;;;4.60;;
50161;SDS011;36061;48.116;11.612;2023-08-17T11:33:49;4.90;;;4.50;;
50161;SDS011;36061;48.116;11.612;2023-08-17T11:36:16;4.40;;;4.00;;
50161;SDS011;36061;48.116;11.612;2023-08-17T11:38:43;5.22;;;4.35;;
50161;SDS011;36061;48.116;11.612;2023-08-17T11:41:11;4.90;;;4.50;;
50161;SDS011;36061;48.116;11.612;2023-08-17T11:43:40;6.13;;;4.90;;
50161;SDS011;36061;48.116;11.612;2023-08-17T11:46:07;6.53;;;4.75;;
50161;SDS011;36061;48.116;11.612;2023-08-17T11:48:34;4.85;;;4.15;;
50161;SDS011;36061;48.116;11.612;2023-08-17T11:51:04;7.78;;;4.53;;
50161;SDS011;36061;48.116;11.612;2023-08-17T11:53:34;6.60;;;4.90;;
50161;SDS011;36061;48.116;11.612;2023-08-17T11:56:02;5.03;;;4.53;;
50161;SDS011;36061;48.116;11.612;2023-08-17T11:58:36;5.90;;;5.30;;
50161;SDS011;36061;48.116;11.612;2023-08-17T12:01:11;6.30;;;4.60;;
50161;SDS011;36061;48.116;11.612;2023-08-17T12:03:40;5.00;;;4.50;;
50161;SDS011;36061;48.116;11.612;2023-08-17T12:06:09;4.70;;;4.22;;
50161;SDS011;36061;48.116;11.612;2023-08-17T12:08:41;5.47;;;4.97;;
50161;SDS011;36061;48.116;11.612;2023-08-17T12:11:09;5.57;;;5.07;;
50161;SDS011;36061;48.116;11.612;2023-08-17T12:13:36;5.35;;;4.72;;
50161;SDS011;36061;48.116;11.612;2023-08-17T12:16:03;7.72;;;5.15;;
50161;SDS011;36061;48.116;11.612;2023-08-17T12:18:32;5.50;;;5.00;;
50161;SDS011;36061;48.116;11.612;2023-08-17T12:20:59;5.25;;;4.75;;
50161;SDS011;36061;48.116;11.612;2023-08-17T12:23:28;6.45;;;5.07;;
50161;SDS011;36061;48.116;11.612;2023-08-17T12:25:55;4.95;;;4.55;;
50161;SDS011;36061;48.116;11.612;2023-08-17T12:28:23;6.18;;;4.85;;
50161;SDS011;36061;48.116;11.612;2023-08-17T12:30:57;6.05;;;5.45;;
50161;SDS011;36061;48.116;11.612;2023-08-17T12:33:25;7.72;;;5.47;;
50161;SDS011;36061;48.116;11.612;2023-08-17T12:35:53;5.85;;;5.25;;
50161;SDS011;36061;48.116;11.612;2023-08-17T12:38:20;5.78;;;5.28;;
50161;SDS011;36061;48.116;11.612;2023-08-17T12:40:49;5.18;;;4.47;;
50161;SDS011;36061;48.116;11.612;2023-08-17T12:43:16;8.43;;;5.22;;
50161;SDS011;36061;48.116;11.612;2023-08-17T12:45:44;6.05;;;4.82;;
50161;SDS011;36061;48.116;11.612;2023-08-17T12:48:11;7.32;;;5.22;;
50161;SDS011;36061;48.116;11.612;2023-08-17T12:50:38;7.05;;;5.63;;
50161;SDS011;36061;48.116;11.612;2023-08-17T12:53:05;4.95;;;4.53;;
50161;SDS011;36061;48.116;11.612;2023-08-17T12:55:33;6.63;;;5.00;;
50161;SDS011;36061;48.116;11.612;2023-08-17T12:58:01;6.72;;;4.82;;
50161;SDS011;36061;48.116;11.612;2023-08-17T13:00:29;6.90;;;4.97;;
50161;SDS011;36061;48.116;11.612;2023-08-17T13:02:56;7.22;;;4.82;;
50161;SDS011;36061;48.116;11.612;2023-08-17T13:05:23;7.78;;;4.55;;
50161;SDS011;36061;48.116;11.612;2023-08-17T13:07:50;5.18;;;4.68;;
50161;SDS011;36061;48.116;11.612;2023-08-17T13:10:18;6.68;;;5.30;;
50161;SDS011;36061;48.116;11.612;2023-08-17T13:12:45;6.00;;;4.70;;
50161;SDS011;36061;48.116;11.612;2023-08-17T13:15:14;5.20;;;4.70;;
50161;SDS011;36061;48.116;11.612;2023-08-17T13:17:42;5.38;;;4.88;;
50161;SDS011;36061;48.116;11.612;2023-08-17T13:20:10;5.85;;;4.60;;
50161;SDS011;36061;48.116;11.612;2023-08-17T13:22:37;6.07;;;4.47;;
50161;SDS011;36061;48.116;11.612;2023-08-17T13:25:04;5.18;;;4.70;;
50161;SDS011;36061;48.116;11.612;2023-08-17T13:27:32;5.65;;;4.93;;
50161;SDS011;36061;48.116;11.612;2023-08-17T13:29:59;5.80;;;4.65;;
50161;SDS011;36061;48.116;11.612;2023-08-17T13:32:28;4.85;;;4.35;;
50161;SDS011;36061;48.116;11.612;2023-08-17T13:34:55;5.43;;;4.75;;
50161;SDS011;36061;48.116;11.612;2023-08-17T13:37:23;4.95;;;4.45;;
50161;SDS011;36061;48.116;11.612;2023-08-17T13:39:50;4.80;;;4.40;;
50161;SDS011;36061;48.116;11.612;2023-08-17T13:42:17;4.50;;;4.10;;
50161;SDS011;36061;48.116;11.612;2023-08-17T13:44:45;4.70;;;4.30;;
50161;SDS011;36061;48.116;11.612;2023-08-17T13:47:12;5.63;;;3.92;;
50161;SDS011;36061;48.116;11.612;2023-08-17T13:49:40;3.90;;;3.60;;
50161;SDS011;36061;48.116;11.612;2023-08-17T13:52:08;4.97;;;3.90;;
50161;SDS011;36061;48.116;11.612;2023-08-17T13:54:35;4.28;;;3.80;;
50161;SDS011;36061;48.116;11.612;2023-08-17T13:57:02;4.18;;;3.75;;
50161;SDS011;36061;48.116;11.612;2023-08-17T13:59:30;5.07;;;4.13;;
50161;SDS011;36061;48.116;11.612;2023-08-17T14:01:57;5.15;;;4.60;;
50161;SDS011;36061;48.116;11.612;2023-08-17T14:04:24;5.35;;;4.03;;
50161;SDS011;36061;48.116;11.612;2023-08-17T14:06:53;4.45;;;4.05;;
50161;SDS011;36061;48.116;11.612;2023-08-17T14:09:20;4.68;;;3.58;;
50161;SDS011;36061;48.116;11.612;2023-08-17T14:11:47;4.43;;;4.03;;
50161;SDS011;36061;48.116;11.612;2023-08-17T14:14:14;3.60;;;3.30;;
50161;SDS011;36061;48.116;11.612;2023-08-17T14:16:42;5.75;;;3.70;;
50161;SDS011;36061;48.116;11.612;2023-08-17T14:19:09;4.22;;;3.88;;
50161;SDS011;36061;48.116;11.612;2023-08-17T14:21:36;4.47;;;3.58;;
50161;SDS011;36061;48.116;11.612;2023-08-17T14:24:05;4.07;;;3.72;;
50161;SDS011;36061;48.116;11.612;2023-08-17T14:26:33;4.68;;;3.95;;
50161;SDS011;36061;48.116;11.612;2023-08-17T14:29:00;6.38;;;4.18;;
50161;SDS011;36061;48.116;11.612;2023-08-17T14:31:28;6.07;;;3.97;;
50161;SDS011;36061;48.116;11.612;2023-08-17T14:33:55;4.47;;;3.83;;
50161;SDS011;36061;48.116;11.612;2023-08-17T14:36:22;5.00;;;4.50;;
50161;SDS011;36061;48.116;11.612;2023-08-17T14:38:49;7.00;;;5.30;;